createdAt,value
2018-11-03T00:00:00.000Z,99441
2018-11-03T00:05:00.000Z,99448
2018-11-03T00:10:00.000Z,99452
2018-11-03T00:15:00.000Z,99454
2018-11-03T00:20:00.000Z,99452
2018-11-03T00:25:00.000Z,99463
2018-11-03T00:30:00.000Z,99461
2018-11-03T00:35:00.000Z,99472
2018-11-03T00:40:00.000Z,99455
2018-11-03T00:45:00.000Z,99451
2018-11-03T00:50:00.000Z,99444
2018-11-03T00:55:00.000Z,99432
2018-11-03T01:00:00.000Z,99445
2018-11-03T01:05:00.000Z,99438
2018-11-03T01:10:00.000Z,99442
2018-11-03T01:15:00.000Z,99439
2018-11-03T01:20:00.000Z,99437
2018-11-03T01:25:00.000Z,99459
2018-11-03T01:30:00.000Z,99437
2018-11-03T01:35:00.000Z,99450
2018-11-03T01:40:00.000Z,99446
2018-11-03T01:45:00.000Z,99432
2018-11-03T01:51:00.000Z,99440
2018-11-03T01:56:00.000Z,99440
2018-11-03T02:01:00.000Z,99442
2018-11-03T02:06:00.000Z,99441
2018-11-03T02:11:00.000Z,99445
2018-11-03T02:16:00.000Z,99441
2018-11-03T02:21:00.000Z,99458
2018-11-03T02:26:00.000Z,99456
2018-11-03T02:31:00.000Z,99452
2018-11-03T02:36:00.000Z,99451
2018-11-03T02:41:00.000Z,99457
2018-11-03T02:46:00.000Z,99464
2018-11-03T02:51:00.000Z,99467
2018-11-03T02:56:00.000Z,99469
2018-11-03T03:01:00.000Z,99470
2018-11-03T03:06:00.000Z,99466
2018-11-03T03:11:00.000Z,99478
2018-11-03T03:16:00.000Z,99488
2018-11-03T03:21:00.000Z,99496
2018-11-03T03:26:00.000Z,99498
2018-11-03T03:31:00.000Z,99497
2018-11-03T03:36:00.000Z,99493
2018-11-03T03:41:00.000Z,99508
2018-11-03T03:46:00.000Z,99517
2018-11-03T03:51:00.000Z,99504
2018-11-03T03:56:00.000Z,99502
2018-11-03T04:01:00.000Z,99515
2018-11-03T04:06:00.000Z,99499
2018-11-03T04:11:00.000Z,99517
2018-11-03T04:16:00.000Z,99510
2018-11-03T04:21:00.000Z,99512
2018-11-03T04:26:00.000Z,99520
2018-11-03T04:31:00.000Z,99509
2018-11-03T04:36:00.000Z,99516
2018-11-03T04:41:00.000Z,99513
2018-11-03T04:46:00.000Z,99523
2018-11-03T04:51:00.000Z,99539
2018-11-03T04:56:00.000Z,99539
2018-11-03T05:01:00.000Z,99534
2018-11-03T05:06:00.000Z,99542
2018-11-03T05:11:00.000Z,99544
2018-11-03T05:16:00.000Z,99539
2018-11-03T05:21:00.000Z,99538
2018-11-03T05:26:00.000Z,99545
2018-11-03T05:31:00.000Z,99547
2018-11-03T05:36:00.000Z,99539
2018-11-03T05:41:00.000Z,99541
2018-11-03T05:46:00.000Z,99548
2018-11-03T05:51:00.000Z,99556
2018-11-03T05:56:00.000Z,99564
2018-11-03T06:01:00.000Z,99576
2018-11-03T06:06:00.000Z,99572
2018-11-03T06:11:00.000Z,99588
2018-11-03T06:16:00.000Z,99593
2018-11-03T06:21:00.000Z,99619
2018-11-03T06:26:00.000Z,99613
2018-11-03T06:31:00.000Z,99621
2018-11-03T06:36:00.000Z,99627
2018-11-03T06:41:00.000Z,99644
2018-11-03T06:46:00.000Z,99646
2018-11-03T06:51:00.000Z,99658
2018-11-03T06:56:00.000Z,99646
2018-11-03T07:01:00.000Z,99649
2018-11-03T07:06:00.000Z,99655
2018-11-03T07:11:00.000Z,99670
2018-11-03T07:16:00.000Z,99658
2018-11-03T07:21:00.000Z,99655
2018-11-03T07:26:00.000Z,99663
2018-11-03T07:31:00.000Z,99682
2018-11-03T07:36:00.000Z,99689
2018-11-03T07:42:00.000Z,99687
2018-11-03T07:47:00.000Z,99669
2018-11-03T07:52:00.000Z,99655
2018-11-03T07:57:00.000Z,99668
2018-11-03T08:02:00.000Z,99671
2018-11-03T08:07:00.000Z,99683
2018-11-03T08:12:00.000Z,99681
2018-11-03T08:17:00.000Z,99683
2018-11-03T08:22:00.000Z,99699
2018-11-03T08:27:00.000Z,99688
2018-11-03T08:32:00.000Z,99700
2018-11-03T08:37:00.000Z,99694
2018-11-03T08:42:00.000Z,99696
2018-11-03T08:47:00.000Z,99680
2018-11-03T08:52:00.000Z,99681
2018-11-03T08:57:00.000Z,99690
2018-11-03T09:02:00.000Z,99695
2018-11-03T09:07:00.000Z,99697
2018-11-03T09:12:00.000Z,99695
2018-11-03T09:17:00.000Z,99697
2018-11-03T09:22:00.000Z,99697
2018-11-03T09:27:00.000Z,99695
2018-11-03T09:32:00.000Z,99702
2018-11-03T09:37:00.000Z,99703
2018-11-03T09:42:00.000Z,99696
2018-11-03T09:47:00.000Z,99676
2018-11-03T09:52:00.000Z,99684
2018-11-03T09:57:00.000Z,99685
2018-11-03T10:02:00.000Z,99682
2018-11-03T10:07:00.000Z,99662
2018-11-03T10:12:00.000Z,99671
2018-11-03T10:17:00.000Z,99663
2018-11-03T10:22:00.000Z,99670
2018-11-03T10:27:00.000Z,99670
2018-11-03T10:32:00.000Z,99672
2018-11-03T10:37:00.000Z,99679
2018-11-03T10:42:00.000Z,99675
2018-11-03T10:47:00.000Z,99675
2018-11-03T10:52:00.000Z,99664
2018-11-03T10:57:00.000Z,99667
2018-11-03T11:02:00.000Z,99663
2018-11-03T11:07:00.000Z,99646
2018-11-03T11:12:00.000Z,99634
2018-11-03T11:17:00.000Z,99651
2018-11-03T11:22:00.000Z,99647
2018-11-03T11:27:00.000Z,99648
2018-11-03T11:32:00.000Z,99655
2018-11-03T11:37:00.000Z,99661
2018-11-03T11:42:00.000Z,99653
2018-11-03T11:47:00.000Z,99653
2018-11-03T11:52:00.000Z,99653
2018-11-03T11:57:00.000Z,99649
2018-11-03T12:02:00.000Z,99643
2018-11-03T12:07:00.000Z,99638
2018-11-03T12:12:00.000Z,99627
2018-11-03T12:17:00.000Z,99630
2018-11-03T12:22:00.000Z,99622
2018-11-03T12:27:00.000Z,99625
2018-11-03T12:32:00.000Z,99620
2018-11-03T12:37:00.000Z,99623
2018-11-03T12:42:00.000Z,99617
2018-11-03T12:47:00.000Z,99621
2018-11-03T12:52:00.000Z,99622
2018-11-03T12:57:00.000Z,99613
2018-11-03T13:02:00.000Z,99620
2018-11-03T13:07:00.000Z,99615
2018-11-03T13:13:00.000Z,99621
2018-11-03T13:18:00.000Z,99614
2018-11-03T13:23:00.000Z,99625
2018-11-03T13:28:00.000Z,99608
2018-11-03T13:33:00.000Z,99620
2018-11-03T13:38:00.000Z,99616
2018-11-03T13:43:00.000Z,99616
2018-11-03T13:48:00.000Z,99615
2018-11-03T13:53:00.000Z,99625
2018-11-03T13:58:00.000Z,99616
2018-11-03T14:03:00.000Z,99621
2018-11-03T14:08:00.000Z,99623
2018-11-03T14:13:00.000Z,99614
2018-11-03T14:18:00.000Z,99604
2018-11-03T14:23:00.000Z,99601
2018-11-03T14:28:00.000Z,99600
2018-11-03T14:33:00.000Z,99609
2018-11-03T14:38:00.000Z,99617
2018-11-03T14:43:00.000Z,99619
2018-11-03T14:48:00.000Z,99633
2018-11-03T14:53:00.000Z,99633
2018-11-03T14:58:00.000Z,99629
2018-11-03T15:03:00.000Z,99631
2018-11-03T15:08:00.000Z,99622
2018-11-03T15:13:00.000Z,99627
2018-11-03T15:18:00.000Z,99623
2018-11-03T15:23:00.000Z,99631
2018-11-03T15:28:00.000Z,99632
2018-11-03T15:33:00.000Z,99629
2018-11-03T15:38:00.000Z,99624
2018-11-03T15:43:00.000Z,99621
2018-11-03T15:48:00.000Z,99628
2018-11-03T15:53:00.000Z,99625
2018-11-03T15:58:00.000Z,99624
2018-11-03T16:03:00.000Z,99632
2018-11-03T16:08:00.000Z,99616
2018-11-03T16:13:00.000Z,99625
2018-11-03T16:18:00.000Z,99621
2018-11-03T16:23:00.000Z,99619
2018-11-03T16:28:00.000Z,99613
2018-11-03T16:33:00.000Z,99616
2018-11-03T16:38:00.000Z,99612
2018-11-03T16:43:00.000Z,99628
2018-11-03T16:48:00.000Z,99624
2018-11-03T16:53:00.000Z,99615
2018-11-03T16:58:00.000Z,99626
2018-11-03T17:03:00.000Z,99626
2018-11-03T17:08:00.000Z,99616
2018-11-03T17:13:00.000Z,99621
2018-11-03T17:18:00.000Z,99614
2018-11-03T17:23:00.000Z,99618
2018-11-03T17:28:00.000Z,99608
2018-11-03T17:33:00.000Z,99618
2018-11-03T17:38:00.000Z,99625
2018-11-03T17:43:00.000Z,99620
2018-11-03T17:48:00.000Z,99618
2018-11-03T17:53:00.000Z,99621
2018-11-03T17:58:00.000Z,99618
2018-11-03T18:03:00.000Z,99613
2018-11-03T18:09:00.000Z,99607
2018-11-03T18:14:00.000Z,99602
2018-11-03T18:19:00.000Z,99594
2018-11-03T18:24:00.000Z,99599
2018-11-03T18:29:00.000Z,99595
2018-11-03T18:34:00.000Z,99589
2018-11-03T18:39:00.000Z,99580
2018-11-03T18:44:00.000Z,99581
2018-11-03T18:49:00.000Z,99576
2018-11-03T18:54:00.000Z,99582
2018-11-03T18:59:00.000Z,99580
2018-11-03T19:04:00.000Z,99581
2018-11-03T19:09:00.000Z,99585
2018-11-03T19:14:00.000Z,99580
2018-11-03T19:19:00.000Z,99589
2018-11-03T19:24:00.000Z,99581
2018-11-03T19:29:00.000Z,99579
2018-11-03T19:34:00.000Z,99584
2018-11-03T19:39:00.000Z,99588
2018-11-03T19:44:00.000Z,99593
2018-11-03T19:49:00.000Z,99581
2018-11-03T19:54:00.000Z,99589
2018-11-03T19:59:00.000Z,99585
2018-11-03T20:04:00.000Z,99577
2018-11-03T20:09:00.000Z,99578
2018-11-03T20:14:00.000Z,99583
2018-11-03T20:19:00.000Z,99578
2018-11-03T20:24:00.000Z,99588
2018-11-03T20:29:00.000Z,99581
2018-11-03T20:34:00.000Z,99575
2018-11-03T20:39:00.000Z,99562
2018-11-03T20:44:00.000Z,99567
2018-11-03T20:49:00.000Z,99577
2018-11-03T20:54:00.000Z,99573
2018-11-03T20:59:00.000Z,99576
2018-11-03T21:04:00.000Z,99570
2018-11-03T21:09:00.000Z,99569
2018-11-03T21:14:00.000Z,99568
2018-11-03T21:19:00.000Z,99561
2018-11-03T21:24:00.000Z,99563
2018-11-03T21:29:00.000Z,99561
2018-11-03T21:34:00.000Z,99549
2018-11-03T21:39:00.000Z,99545
2018-11-03T21:44:00.000Z,99532
2018-11-03T21:49:00.000Z,99519
2018-11-03T21:54:00.000Z,99519
2018-11-03T21:59:00.000Z,99512
2018-11-03T22:04:00.000Z,99511
2018-11-03T22:09:00.000Z,99514
2018-11-03T22:14:00.000Z,99504
2018-11-03T22:19:00.000Z,99496
2018-11-03T22:24:00.000Z,99498
2018-11-03T22:29:00.000Z,99498
2018-11-03T22:34:00.000Z,99499
2018-11-03T22:39:00.000Z,99484
2018-11-03T22:44:00.000Z,99474
2018-11-03T22:49:00.000Z,99472
2018-11-03T22:54:00.000Z,99475
2018-11-03T23:00:00.000Z,99445
2018-11-03T23:05:00.000Z,99455
2018-11-03T23:10:00.000Z,99452
2018-11-03T23:15:00.000Z,99457
2018-11-03T23:20:00.000Z,99441
2018-11-03T23:25:00.000Z,99441
2018-11-03T23:30:00.000Z,99432
2018-11-03T23:35:00.000Z,99434
2018-11-03T23:40:00.000Z,99426
2018-11-03T23:45:00.000Z,99414
2018-11-03T23:50:00.000Z,99410
2018-11-03T23:55:00.000Z,99406
